Time,TemperatureF,DewpointF,PressureIn,WindDirection,WindDirectionDegrees,WindSpeedMPH,WindSpeedGustMPH,Humidity,HourlyPrecipIn,Conditions,Clouds,dailyrainin,SoftwareType,DateUTC
2013-08-05 00:02:00,60.0,58.0,29.90,North,355,6.0,-999.0,94,-99.99,,,-99.99,,2013-08-05 05:02:00,
2013-08-05 00:12:00,59.0,57.0,29.90,North,360,7.0,-999.0,94,-99.99,,,-99.99,,2013-08-05 05:12:00,
2013-08-05 00:22:00,59.0,57.0,29.90,North,360,5.0,-999.0,94,-99.99,,,-99.99,,2013-08-05 05:22:00,
2013-08-05 00:32:00,59.0,57.0,29.90,North,360,5.0,-999.0,94,-99.99,,,-99.99,,2013-08-05 05:32:00,
2013-08-05 00:42:00,59.0,57.0,29.90,North,360,5.0,-999.0,94,-99.99,,,-99.99,,2013-08-05 05:42:00,
2013-08-05 00:53:00,59.0,57.0,29.90,North,360,4.0,-999.0,94,-99.99,,,-99.99,,2013-08-05 05:53:00,
2013-08-05 01:02:00,59.0,57.0,29.90,North,360,4.0,-999.0,94,-99.99,,,-99.99,,2013-08-05 06:02:00,
2013-08-05 01:12:00,59.0,57.0,29.90,North,350,4.0,-999.0,94,-99.99,,,-99.99,,2013-08-05 06:12:00,
2013-08-05 01:22:00,59.0,57.0,29.90,North,349,4.0,-999.0,94,-99.99,,,-99.99,,2013-08-05 06:22:00,
2013-08-05 01:32:00,59.0,57.0,29.90,North,349,4.0,-999.0,94,-99.99,,,-99.99,,2013-08-05 06:32:00,
2013-08-05 01:43:00,58.0,56.0,29.90,NNW,346,4.0,-999.0,93,-99.99,,,-99.99,,2013-08-05 06:43:00,
2013-08-05 01:52:00,58.0,56.0,29.90,North,350,5.0,-999.0,93,-99.99,,,-99.99,,2013-08-05 06:52:00,
2013-08-05 02:02:00,58.0,56.0,29.90,North,350,5.0,-999.0,93,-99.99,,,-99.99,,2013-08-05 07:02:00,
2013-08-05 02:12:00,58.0,56.0,29.90,North,350,4.0,-999.0,93,-99.99,,,-99.99,,2013-08-05 07:12:00,
2013-08-05 02:22:00,58.0,56.0,29.90,North,349,2.0,-999.0,93,-99.99,,,-99.99,,2013-08-05 07:22:00,
2013-08-05 02:32:00,58.0,56.0,29.90,North,349,2.0,-999.0,93,-99.99,,,-99.99,,2013-08-05 07:32:00,
2013-08-05 02:43:00,58.0,56.0,29.89,North,349,3.0,-999.0,93,-99.99,,,-99.99,,2013-08-05 07:43:00,
2013-08-05 02:53:00,58.0,56.0,29.90,North,350,2.0,-999.0,93,-99.99,,,-99.99,,2013-08-05 07:53:00,
2013-08-05 03:02:00,58.0,56.0,29.90,North,350,2.0,-999.0,93,-99.99,,,-99.99,,2013-08-05 08:02:00,
2013-08-05 03:12:00,58.0,56.0,29.90,North,350,2.0,-999.0,94,-99.99,,,-99.99,,2013-08-05 08:12:00,
2013-08-05 03:22:00,58.0,56.0,29.89,North,350,1.0,-999.0,94,-99.99,,,-99.99,,2013-08-05 08:22:00,
2013-08-05 03:34:00,58.0,56.0,29.89,North,350,1.0,-999.0,94,-99.99,,,-99.99,,2013-08-05 08:34:00,
2013-08-05 03:47:00,58.0,56.0,29.89,North,349,2.0,-999.0,94,-99.99,,,-99.99,,2013-08-05 08:47:00,
2013-08-05 03:53:00,58.0,56.0,29.89,North,349,0.0,-999.0,94,-99.99,,,-99.99,,2013-08-05 08:53:00,
2013-08-05 04:06:00,58.0,56.0,29.89,North,349,0.0,-999.0,94,-99.99,,,-99.99,,2013-08-05 09:06:00,
2013-08-05 04:16:00,58.0,56.0,29.89,North,350,2.0,-999.0,94,-99.99,,,-99.99,,2013-08-05 09:16:00,
2013-08-05 04:24:00,58.0,56.0,29.89,North,350,3.0,-999.0,94,-99.99,,,-99.99,,2013-08-05 09:24:00,
2013-08-05 04:37:00,58.0,56.0,29.89,North,350,3.0,-999.0,94,-99.99,,,-99.99,,2013-08-05 09:37:00,
2013-08-05 04:47:00,57.0,55.0,29.90,North,350,2.0,-999.0,94,-99.99,,,-99.99,,2013-08-05 09:47:00,
2013-08-05 04:53:00,57.0,55.0,29.89,North,350,1.0,-999.0,94,-99.99,,,-99.99,,2013-08-05 09:53:00,
2013-08-05 05:14:00,57.0,55.0,29.89,North,349,1.0,-999.0,94,-99.99,,,-99.99,,2013-08-05 10:14:00,
2013-08-05 05:24:00,57.0,55.0,29.89,North,349,1.0,-999.0,94,-99.99,,,-99.99,,2013-08-05 10:24:00,
2013-08-05 05:32:00,57.0,55.0,29.89,North,349,1.0,-999.0,94,-99.99,,,-99.99,,2013-08-05 10:32:00,
2013-08-05 05:46:00,57.0,55.0,29.89,North,350,1.0,-999.0,94,-99.99,,,-99.99,,2013-08-05 10:46:00,
2013-08-05 05:52:00,57.0,55.0,29.89,North,350,3.0,-999.0,94,-99.99,,,-99.99,,2013-08-05 10:52:00,
2013-08-05 06:06:00,57.0,55.0,29.89,North,350,3.0,-999.0,94,-99.99,,,-99.99,,2013-08-05 11:06:00,
2013-08-05 06:14:00,57.0,55.0,29.89,North,350,2.0,-999.0,94,-99.99,,,-99.99,,2013-08-05 11:14:00,
2013-08-05 06:24:00,57.0,55.0,29.89,North,10,6.0,-999.0,94,-99.99,,,-99.99,,2013-08-05 11:24:00,
2013-08-05 06:35:00,57.0,55.0,29.89,North,10,6.0,-999.0,94,-99.99,,,-99.99,,2013-08-05 11:35:00,
2013-08-05 06:47:00,57.0,55.0,29.89,North,360,4.0,-999.0,92,-99.99,,,-99.99,,2013-08-05 11:47:00,
2013-08-05 07:06:00,57.0,54.0,29.89,North,355,4.0,-999.0,90,-99.99,,,-99.99,,2013-08-05 12:06:00,
2013-08-05 07:25:00,56.0,53.0,29.89,North,355,3.0,-999.0,90,-99.99,,,-99.99,,2013-08-05 12:25:00,
2013-08-05 07:33:00,56.0,53.0,29.89,North,355,3.0,-999.0,90,-99.99,,,-99.99,,2013-08-05 12:33:00,
2013-08-05 07:47:00,56.0,53.0,29.88,North,355,1.0,-999.0,90,-99.99,,,-99.99,,2013-08-05 12:47:00,
2013-08-05 08:02:00,56.0,53.0,29.89,North,355,1.0,-999.0,91,-99.99,,,-99.99,,2013-08-05 13:02:00,
2013-08-05 08:13:00,56.0,53.0,29.89,North,355,3.0,-999.0,91,-99.99,,,-99.99,,2013-08-05 13:13:00,
2013-08-05 08:24:00,57.0,55.0,29.89,North,355,2.0,-999.0,92,-99.99,,,-99.99,,2013-08-05 13:24:00,
2013-08-05 08:42:00,57.0,54.0,29.89,North,351,3.0,-999.0,89,-99.99,,,-99.99,,2013-08-05 13:42:00,
2013-08-05 08:53:00,58.0,54.0,29.88,North,349,4.0,-999.0,87,-99.99,,,-99.99,,2013-08-05 13:53:00,
2013-08-05 09:05:00,58.0,54.0,29.88,North,349,4.0,-999.0,87,-99.99,,,-99.99,,2013-08-05 14:05:00,
2013-08-05 09:24:00,58.0,53.0,29.89,NNW,346,4.0,-999.0,84,-99.99,,,-99.99,,2013-08-05 14:24:00,
2013-08-05 09:35:00,58.0,53.0,29.89,NNW,346,4.0,-999.0,84,-99.99,,,-99.99,,2013-08-05 14:35:00,
2013-08-05 09:45:00,60.0,55.0,29.89,NW,325,3.0,-999.0,83,-99.99,,,-99.99,,2013-08-05 14:45:00,
2013-08-05 09:53:00,61.0,55.0,29.89,NW,324,2.0,-999.0,81,-99.99,,,-99.99,,2013-08-05 14:53:00,
2013-08-05 10:13:00,61.0,54.0,29.89,NW,323,2.0,-999.0,79,-99.99,,,-99.99,,2013-08-05 15:13:00,
2013-08-05 10:25:00,62.0,55.0,29.89,NW,322,2.0,-999.0,79,-99.99,,,-99.99,,2013-08-05 15:25:00,
2013-08-05 10:35:00,62.0,55.0,29.89,NW,322,2.0,-999.0,79,-99.99,,,-99.99,,2013-08-05 15:35:00,
2013-08-05 10:45:00,63.0,56.0,29.89,NW,321,3.0,-999.0,79,-99.99,,,-99.99,,2013-08-05 15:45:00,
2013-08-05 10:54:00,64.0,57.0,29.89,NW,320,2.0,-999.0,78,-99.99,,,-99.99,,2013-08-05 15:54:00,
2013-08-05 11:15:00,65.0,57.0,29.88,NW,319,1.0,-999.0,75,-99.99,,,-99.99,,2013-08-05 16:15:00,
2013-08-05 11:23:00,66.0,56.0,29.88,NW,321,2.0,-999.0,71,-99.99,,,-99.99,,2013-08-05 16:23:00,
2013-08-05 11:33:00,66.0,56.0,29.88,NW,321,2.0,-999.0,71,-99.99,,,-99.99,,2013-08-05 16:33:00,
2013-08-05 11:54:00,67.0,55.0,29.88,NW,321,1.0,-999.0,66,-99.99,,,-99.99,,2013-08-05 16:54:00,
2013-08-05 12:05:00,67.0,55.0,29.88,NW,321,1.0,-999.0,66,-99.99,,,-99.99,,2013-08-05 17:05:00,
2013-08-05 12:15:00,68.0,56.0,29.88,NW,321,2.0,-999.0,65,-99.99,,,-99.99,,2013-08-05 17:15:00,
2013-08-05 12:22:00,69.0,56.0,29.88,NW,321,1.0,-999.0,63,-99.99,,,-99.99,,2013-08-05 17:22:00,
2013-08-05 12:34:00,69.0,56.0,29.88,NW,321,1.0,-999.0,63,-99.99,,,-99.99,,2013-08-05 17:34:00,
2013-08-05 12:46:00,70.0,58.0,29.87,NW,321,1.0,-999.0,65,-99.99,,,-99.99,,2013-08-05 17:46:00,
2013-08-05 12:55:00,70.0,56.0,29.87,NW,321,2.0,-999.0,62,-99.99,,,-99.99,,2013-08-05 17:55:00,
2013-08-05 13:06:00,70.0,56.0,29.87,NW,321,2.0,-999.0,62,-99.99,,,-99.99,,2013-08-05 18:06:00,
2013-08-05 13:13:00,72.0,59.0,29.86,SE,134,2.0,-999.0,64,-99.99,,,-99.99,,2013-08-05 18:13:00,
2013-08-05 13:44:00,72.0,57.0,29.86,SSE,149,3.0,-999.0,59,-99.99,,,-99.99,,2013-08-05 18:44:00,
2013-08-05 13:53:00,73.0,57.0,29.85,SE,130,2.0,-999.0,58,-99.99,,,-99.99,,2013-08-05 18:53:00,
2013-08-05 14:05:00,74.0,55.0,29.85,South,182,3.0,-999.0,52,-99.99,,,-99.99,,2013-08-05 19:05:00,
2013-08-05 14:14:00,74.0,55.0,29.85,South,182,3.0,-999.0,52,-99.99,,,-99.99,,2013-08-05 19:14:00,
2013-08-05 14:35:00,74.0,56.0,29.84,South,169,1.0,-999.0,53,-99.99,,,-99.99,,2013-08-05 19:35:00,
2013-08-05 14:54:00,74.0,53.0,29.84,SE,143,2.0,-999.0,48,-99.99,,,-99.99,,2013-08-05 19:54:00,
2013-08-05 15:06:00,75.0,54.0,29.83,SSE,156,3.0,-999.0,48,-99.99,,,-99.99,,2013-08-05 20:06:00,
2013-08-05 15:15:00,75.0,54.0,29.83,SSE,156,3.0,-999.0,48,-99.99,,,-99.99,,2013-08-05 20:15:00,
2013-08-05 15:35:00,75.0,52.0,29.83,SW,225,4.0,-999.0,45,-99.99,,,-99.99,,2013-08-05 20:35:00,
2013-08-05 15:47:00,76.0,53.0,29.83,SSW,205,4.0,-999.0,45,-99.99,,,-99.99,,2013-08-05 20:47:00,
2013-08-05 15:54:00,76.0,53.0,29.82,SSE,164,3.0,-999.0,45,-99.99,,,-99.99,,2013-08-05 20:54:00,
2013-08-05 16:05:00,76.0,53.0,29.82,SSE,164,3.0,-999.0,45,-99.99,,,-99.99,,2013-08-05 21:05:00,
2013-08-05 16:16:00,76.0,53.0,29.81,SSE,157,4.0,-999.0,45,-99.99,,,-99.99,,2013-08-05 21:16:00,
2013-08-05 16:25:00,76.0,52.0,29.80,WSW,237,4.0,-999.0,43,-99.99,,,-99.99,,2013-08-05 21:25:00,
2013-08-05 16:33:00,76.0,52.0,29.80,WSW,237,4.0,-999.0,43,-99.99,,,-99.99,,2013-08-05 21:33:00,
2013-08-05 16:45:00,77.0,54.0,29.79,West,265,2.0,-999.0,45,-99.99,,,-99.99,,2013-08-05 21:45:00,
2013-08-05 16:53:00,77.0,54.0,29.79,West,265,2.0,-999.0,45,-99.99,,,-99.99,,2013-08-05 21:53:00,
2013-08-05 17:05:00,77.0,54.0,29.79,West,265,2.0,-999.0,45,-99.99,,,-99.99,,2013-08-05 22:05:00,
2013-08-05 17:25:00,78.0,54.0,29.76,SSE,161,3.0,-999.0,43,-99.99,,,-99.99,,2013-08-05 22:25:00,
2013-08-05 17:43:00,78.0,54.0,29.75,SSW,211,4.0,-999.0,43,-99.99,,,-99.99,,2013-08-05 22:43:00,
2013-08-05 17:53:00,77.0,53.0,29.74,SSW,199,4.0,-999.0,44,-99.99,,,-99.99,,2013-08-05 22:53:00,
2013-08-05 18:05:00,77.0,53.0,29.74,SSW,199,4.0,-999.0,44,-99.99,,,-99.99,,2013-08-05 23:05:00,
2013-08-05 18:33:00,77.0,53.0,29.73,SW,219,2.0,-999.0,44,-99.99,,,-99.99,,2013-08-05 23:33:00,
2013-08-05 18:46:00,78.0,56.0,29.73,WSW,242,2.0,-999.0,46,-99.99,,,-99.99,,2013-08-05 23:46:00,
2013-08-05 18:55:00,77.0,54.0,29.72,SSW,212,1.0,-999.0,45,-99.99,,,-99.99,,2013-08-05 23:55:00,
2013-08-05 19:02:00,77.0,54.0,29.72,SSW,212,1.0,-999.0,45,-99.99,,,-99.99,,2013-08-06 00:02:00,
2013-08-05 19:24:00,76.0,55.0,29.71,South,180,2.0,-999.0,49,-99.99,,,-99.99,,2013-08-06 00:24:00,
2013-08-05 19:35:00,76.0,55.0,29.71,South,180,2.0,-999.0,49,-99.99,,,-99.99,,2013-08-06 00:35:00,
2013-08-05 19:45:00,76.0,55.0,29.71,South,180,0.0,-999.0,49,-99.99,,,-99.99,,2013-08-06 00:45:00,
2013-08-05 20:06:00,76.0,57.0,29.71,SSW,194,2.0,-999.0,52,-99.99,,,-99.99,,2013-08-06 01:06:00,
2013-08-05 20:37:00,74.0,58.0,29.71,SSW,195,1.0,-999.0,58,-99.99,,,-99.99,,2013-08-06 01:37:00,
2013-08-05 20:47:00,73.0,57.0,29.71,SSW,194,3.0,-999.0,58,-99.99,,,-99.99,,2013-08-06 01:47:00,
2013-08-05 20:54:00,73.0,59.0,29.71,SSW,194,1.0,-999.0,61,-99.99,,,-99.99,,2013-08-06 01:54:00,
2013-08-05 21:06:00,73.0,59.0,29.71,SSW,194,1.0,-999.0,61,-99.99,,,-99.99,,2013-08-06 02:06:00,
2013-08-05 21:25:00,69.0,57.0,29.70,SSW,194,0.0,-999.0,66,-99.99,,,-99.99,,2013-08-06 02:25:00,
2013-08-05 21:32:00,69.0,57.0,29.70,SSW,194,0.0,-999.0,66,-99.99,,,-99.99,,2013-08-06 02:32:00,
2013-08-05 21:45:00,70.0,58.0,29.71,SSW,194,0.0,-999.0,65,-99.99,,,-99.99,,2013-08-06 02:45:00,
2013-08-05 21:52:00,70.0,59.0,29.71,SSW,194,2.0,-999.0,68,-99.99,,,-99.99,,2013-08-06 02:52:00,
2013-08-05 22:01:00,70.0,59.0,29.71,SSW,194,2.0,-999.0,68,-99.99,,,-99.99,,2013-08-06 03:01:00,
2013-08-05 22:35:00,69.0,60.0,29.68,SE,125,6.0,-999.0,72,-99.99,,,-99.99,,2013-08-06 03:35:00,
2013-08-05 22:45:00,67.0,61.0,29.69,SSE,165,6.0,-999.0,80,-99.99,,,-99.99,,2013-08-06 03:45:00,
2013-08-05 22:52:00,67.0,61.0,29.69,SW,216,5.0,-999.0,81,-99.99,,,-99.99,,2013-08-06 03:52:00,
2013-08-05 23:01:00,67.0,61.0,29.69,SW,216,5.0,-999.0,81,-99.99,,,-99.99,,2013-08-06 04:01:00,
2013-08-05 23:22:00,66.0,60.0,29.72,NW,307,4.0,-999.0,81,-99.99,,,-99.99,,2013-08-06 04:22:00,
2013-08-05 23:33:00,66.0,60.0,29.72,NW,307,4.0,-999.0,81,-99.99,,,-99.99,,2013-08-06 04:33:00,
2013-08-05 23:44:00,65.0,59.0,29.72,NW,307,0.0,-999.0,80,-99.99,,,-99.99,,2013-08-06 04:44:00,
2013-08-05 23:53:00,65.0,59.0,29.71,NW,324,3.0,-999.0,81,-99.99,,,-99.99,,2013-08-06 04:53:00,